createdAt,value
2019-02-19T00:01:29.118Z,30.60
2019-02-19T00:04:35.473Z,36.80
2019-02-19T00:09:23.157Z,32.87
2019-02-19T00:09:55.862Z,35.00
2019-02-19T00:12:27.176Z,34.07
2019-02-19T00:15:18.882Z,34.83
2019-02-19T00:24:48.020Z,32.70
2019-02-19T00:27:20.928Z,36.37
2019-02-19T00:29:53.169Z,39.80
2019-02-19T00:32:24.146Z,38.00
2019-02-19T00:34:57.044Z,36.23
2019-02-19T00:44:16.520Z,36.33
2019-02-19T00:50:00.323Z,39.80
2019-02-19T00:52:35.016Z,36.30
2019-02-19T00:55:07.865Z,36.30
2019-02-19T01:01:12.948Z,37.80
2019-02-19T01:03:44.782Z,37.73
2019-02-19T01:06:16.216Z,38.13
2019-02-19T01:08:48.857Z,36.90
2019-02-19T01:11:21.462Z,38.73
2019-02-19T01:13:54.986Z,41.57
2019-02-19T01:19:32.108Z,39.17
2019-02-19T01:22:08.093Z,38.97
2019-02-19T01:24:40.275Z,36.57
2019-02-19T01:27:39.366Z,41.63
2019-02-19T01:30:12.255Z,39.20
2019-02-19T01:35:54.031Z,41.13
2019-02-19T01:38:25.475Z,37.50
2019-02-19T01:40:57.167Z,38.73
2019-02-19T01:43:29.905Z,40.27
2019-02-19T01:46:02.621Z,37.77
2019-02-19T01:48:49.451Z,40.80
2019-02-19T01:51:22.654Z,34.90
2019-02-19T01:53:56.984Z,35.50
2019-02-19T01:56:47.287Z,38.10
2019-02-19T01:59:19.386Z,38.30
2019-02-19T02:01:51.969Z,39.23
2019-02-19T02:04:23.441Z,39.70
2019-02-19T02:17:22.914Z,39.93
2019-02-19T02:23:24.601Z,39.57
2019-02-19T02:40:07.494Z,38.07
2019-02-19T02:43:44.795Z,37.50
2019-02-19T02:45:53.570Z,43.10
2019-02-19T02:48:23.211Z,35.17
2019-02-19T02:50:56.961Z,41.90
2019-02-19T02:53:28.634Z,39.83
2019-02-19T02:55:59.914Z,38.40
2019-02-19T03:01:52.580Z,45.93
2019-02-19T03:04:29.480Z,39.37
2019-02-19T03:07:13.713Z,39.10
2019-02-19T03:16:54.970Z,40.13
2019-02-19T03:19:27.054Z,43.20
2019-02-19T03:38:31.944Z,42.53
2019-02-19T03:41:04.224Z,47.10
2019-02-19T03:43:36.907Z,44.60
2019-02-19T03:46:11.984Z,41.77
2019-02-19T03:48:42.371Z,42.43
2019-02-19T03:51:14.626Z,50.77
2019-02-19T03:53:45.836Z,46.03
2019-02-19T03:56:17.467Z,46.47
2019-02-19T03:58:49.470Z,48.13
2019-02-19T04:01:20.876Z,43.10
2019-02-19T04:03:52.301Z,45.70
2019-02-19T04:06:24.187Z,48.80
2019-02-19T04:08:56.400Z,46.13
2019-02-19T04:11:28.067Z,44.37
2019-02-19T04:13:59.473Z,42.60
2019-02-19T04:16:30.897Z,41.30
2019-02-19T04:19:03.537Z,44.20
2019-02-19T04:21:35.506Z,41.27
2019-02-19T04:24:08.023Z,40.20
2019-02-19T04:26:40.888Z,41.33
2019-02-19T04:29:12.911Z,40.40
2019-02-19T04:31:51.588Z,40.50
2019-02-19T04:34:24.249Z,35.03
2019-02-19T04:36:57.088Z,40.93
2019-02-19T04:39:28.977Z,33.53
2019-02-19T04:42:00.774Z,31.93
2019-02-19T04:44:33.322Z,32.80
2019-02-19T04:47:06.134Z,30.00
2019-02-19T04:49:39.809Z,28.90
2019-02-19T04:52:12.340Z,35.23
2019-02-19T04:54:44.456Z,33.37
2019-02-19T04:57:16.041Z,33.10
2019-02-19T04:59:47.450Z,34.27
2019-02-19T05:02:18.425Z,38.23
2019-02-19T05:04:49.937Z,37.00
2019-02-19T05:07:21.261Z,38.57
2019-02-19T05:09:52.278Z,37.17
2019-02-19T05:12:23.583Z,39.57
2019-02-19T05:14:54.946Z,40.03
2019-02-19T05:17:27.881Z,41.50
2019-02-19T05:19:59.277Z,37.83
2019-02-19T05:22:30.277Z,43.37
2019-02-19T05:25:00.939Z,44.77
2019-02-19T05:27:32.672Z,34.27
2019-02-19T05:30:03.573Z,40.53
2019-02-19T05:32:34.301Z,37.63
2019-02-19T05:35:06.323Z,36.87
2019-02-19T05:44:31.516Z,32.10
2019-02-19T05:47:02.278Z,39.20
2019-02-19T05:53:00.445Z,29.53
2019-02-19T05:55:31.374Z,36.33
2019-02-19T05:58:02.508Z,27.97
2019-02-19T06:00:33.471Z,27.60
2019-02-19T06:03:04.046Z,31.93
2019-02-19T06:05:36.123Z,30.77
2019-02-19T06:08:07.457Z,29.70
2019-02-19T06:10:38.890Z,27.77
2019-02-19T06:13:12.105Z,32.33
2019-02-19T06:15:50.998Z,29.80
2019-02-19T06:18:31.357Z,30.73
2019-02-19T06:21:02.678Z,29.63
2019-02-19T06:23:33.821Z,28.93
2019-02-19T06:26:04.845Z,31.17
2019-02-19T06:28:36.368Z,35.23
2019-02-19T06:31:07.534Z,31.87
2019-02-19T06:33:38.862Z,34.40
2019-02-19T06:36:10.097Z,27.83
2019-02-19T06:38:41.625Z,26.37
2019-02-19T06:41:13.274Z,26.37
2019-02-19T06:43:44.649Z,26.40
2019-02-19T06:46:16.462Z,32.97
2019-02-19T06:48:47.509Z,25.43
2019-02-19T06:51:19.180Z,28.27
2019-02-19T06:53:50.339Z,27.07
2019-02-19T06:56:21.598Z,29.53
2019-02-19T06:58:53.210Z,31.10
2019-02-19T07:01:26.382Z,22.73
2019-02-19T07:04:05.521Z,28.33
2019-02-19T07:06:37.530Z,32.07
2019-02-19T07:09:09.374Z,28.97
2019-02-19T07:11:40.640Z,29.27
2019-02-19T07:14:13.248Z,30.20
2019-02-19T07:16:45.496Z,36.87
2019-02-19T07:19:30.710Z,27.97
2019-02-19T07:22:04.709Z,29.83
2019-02-19T07:24:36.101Z,27.90
2019-02-19T07:27:09.343Z,27.93
2019-02-19T07:32:58.080Z,25.90
2019-02-19T07:35:29.664Z,27.30
2019-02-19T07:38:04.611Z,28.03
2019-02-19T07:40:38.052Z,29.27
2019-02-19T07:43:08.789Z,24.33
2019-02-19T07:49:31.910Z,18.83
2019-02-19T07:52:12.096Z,24.73
2019-02-19T07:54:45.800Z,28.70
2019-02-19T07:57:18.135Z,25.07
2019-02-19T07:59:50.457Z,23.93
2019-02-19T08:02:24.827Z,25.93
2019-02-19T08:04:57.379Z,21.43
2019-02-19T08:07:28.740Z,29.10
2019-02-19T08:09:59.983Z,30.10
2019-02-19T08:12:31.637Z,22.00
2019-02-19T08:15:04.906Z,21.40
2019-02-19T08:17:37.793Z,20.80
2019-02-19T08:20:16.109Z,22.83
2019-02-19T08:22:49.885Z,22.53
2019-02-19T08:25:21.335Z,19.43
2019-02-19T08:27:52.915Z,19.27
2019-02-19T08:30:23.519Z,22.67
2019-02-19T08:32:56.876Z,22.40
2019-02-19T08:35:27.711Z,23.63
2019-02-19T08:37:59.877Z,31.63
2019-02-19T08:40:30.578Z,26.23
2019-02-19T08:43:02.219Z,25.63
2019-02-19T08:45:34.217Z,22.33
2019-02-19T08:48:05.992Z,19.07
2019-02-19T08:50:38.298Z,24.07
2019-02-19T08:53:10.150Z,20.77
2019-02-19T08:55:42.510Z,20.13
2019-02-19T08:58:13.913Z,23.77
2019-02-19T09:33:12.534Z,21.70
2019-02-19T09:35:44.673Z,23.80
2019-02-19T09:38:15.690Z,22.93
2019-02-19T09:40:46.073Z,20.87
2019-02-19T09:43:16.630Z,28.40
2019-02-19T09:45:48.143Z,25.10
2019-02-19T09:48:18.453Z,25.50
2019-02-19T09:50:49.396Z,25.77
2019-02-19T09:53:20.472Z,24.40
2019-02-19T09:55:51.351Z,20.03
2019-02-19T09:58:22.534Z,29.40
2019-02-19T10:00:53.605Z,22.97
2019-02-19T10:03:25.446Z,23.17
2019-02-19T10:05:56.624Z,30.40
2019-02-19T10:08:32.709Z,26.80
2019-02-19T10:11:32.456Z,22.87
2019-02-19T10:14:04.527Z,25.40
2019-02-19T10:20:01.075Z,23.00
2019-02-19T10:22:32.126Z,25.73
2019-02-19T10:25:04.587Z,30.20
2019-02-19T10:27:35.402Z,23.40
2019-02-19T10:30:09.575Z,24.87
2019-02-19T10:32:40.168Z,27.07
2019-02-19T10:35:13.220Z,26.53
2019-02-19T10:37:44.363Z,27.87
2019-02-19T10:40:20.109Z,25.20
2019-02-19T10:42:51.268Z,33.47
2019-02-19T10:45:26.815Z,31.97
2019-02-19T10:47:58.876Z,24.60
2019-02-19T10:50:30.432Z,32.73
2019-02-19T10:53:01.077Z,23.37
2019-02-19T10:55:32.263Z,24.47
2019-02-19T10:58:04.948Z,25.03
2019-02-19T11:00:35.958Z,29.33
2019-02-19T11:03:07.228Z,28.53
2019-02-19T11:05:38.314Z,28.13
2019-02-19T11:08:08.786Z,25.03
2019-02-19T11:10:40.566Z,29.97
2019-02-19T11:13:11.683Z,26.97
2019-02-19T11:15:42.811Z,31.00
2019-02-19T11:18:14.546Z,27.23
2019-02-19T11:20:45.336Z,29.70
2019-02-19T11:23:16.043Z,22.40
2019-02-19T11:25:47.945Z,25.20
2019-02-19T11:28:19.879Z,32.77
2019-02-19T11:30:52.426Z,25.50
2019-02-19T11:33:24.881Z,19.83
2019-02-19T11:35:56.870Z,23.77
2019-02-19T11:41:43.037Z,20.17
2019-02-19T11:44:13.880Z,22.97
2019-02-19T11:46:45.904Z,20.83
2019-02-19T11:49:17.676Z,20.13
2019-02-19T11:52:02.268Z,21.93
2019-02-19T11:54:34.590Z,19.00
2019-02-19T11:57:05.575Z,26.10
2019-02-19T11:59:37.565Z,24.67
2019-02-19T12:02:10.507Z,27.40
2019-02-19T12:04:41.782Z,31.00
2019-02-19T12:07:13.965Z,25.00
2019-02-19T12:09:46.810Z,29.73
2019-02-19T12:12:19.231Z,33.63
2019-02-19T12:14:50.417Z,38.07
2019-02-19T12:17:21.192Z,33.30
2019-02-19T12:19:54.957Z,35.47
2019-02-19T12:22:25.840Z,34.80
2019-02-19T12:24:57.127Z,35.43
2019-02-19T12:27:30.546Z,42.63
2019-02-19T12:30:01.543Z,35.13
2019-02-19T12:32:33.176Z,44.93
2019-02-19T12:35:05.507Z,37.33
2019-02-19T12:37:42.076Z,35.50
2019-02-19T12:40:14.578Z,42.93
2019-02-19T12:42:46.566Z,31.07
2019-02-19T12:45:17.567Z,40.90
2019-02-19T12:47:48.115Z,35.27
2019-02-19T12:50:19.767Z,40.87
2019-02-19T12:52:53.868Z,36.93
2019-02-19T12:55:26.353Z,35.70
2019-02-19T12:57:58.427Z,35.13
2019-02-19T13:00:30.810Z,28.67
2019-02-19T13:03:03.425Z,33.80
2019-02-19T13:05:38.302Z,26.07
2019-02-19T13:08:09.682Z,39.50
2019-02-19T13:10:41.129Z,36.33
2019-02-19T13:13:16.279Z,35.77
2019-02-19T13:15:47.599Z,36.80
2019-02-19T13:18:19.369Z,44.07
2019-02-19T13:20:49.810Z,39.27
2019-02-19T13:23:22.569Z,35.50
2019-02-19T13:25:56.307Z,34.53
2019-02-19T13:28:31.884Z,37.53
2019-02-19T13:31:03.348Z,30.77
2019-02-19T13:33:33.783Z,29.77
2019-02-19T13:36:04.858Z,35.23
2019-02-19T13:38:37.763Z,32.50
2019-02-19T13:41:10.082Z,29.60
2019-02-19T13:43:41.099Z,36.17
2019-02-19T13:46:13.487Z,31.23
2019-02-19T13:48:45.792Z,28.20
2019-02-19T13:51:17.275Z,30.67
2019-02-19T13:53:55.657Z,38.97
2019-02-19T13:56:25.959Z,28.63
2019-02-19T13:58:58.339Z,32.47
2019-02-19T14:01:30.593Z,20.10
2019-02-19T14:04:02.195Z,31.43
2019-02-19T14:06:35.884Z,25.40
2019-02-19T14:09:06.744Z,39.23
2019-02-19T14:11:38.953Z,24.03
2019-02-19T14:14:29.786Z,29.00
2019-02-19T14:17:00.660Z,25.13
2019-02-19T14:19:39.617Z,26.57
2019-02-19T14:22:22.135Z,16.97
2019-02-19T14:25:03.944Z,23.80
2019-02-19T14:27:56.127Z,19.87
2019-02-19T14:30:46.597Z,27.57
2019-02-19T14:33:27.041Z,29.27
2019-02-19T14:36:12.459Z,20.23
2019-02-19T14:38:46.704Z,25.43
2019-02-19T14:41:35.031Z,17.43
2019-02-19T14:44:22.587Z,23.10
2019-02-19T14:47:04.435Z,21.63
2019-02-19T14:49:53.609Z,22.60
2019-02-19T14:52:45.924Z,17.70
2019-02-19T14:55:27.157Z,21.17
2019-02-19T14:58:05.547Z,26.87
2019-02-19T15:00:46.740Z,24.83
2019-02-19T15:03:26.376Z,27.03
2019-02-19T15:06:02.456Z,22.63
2019-02-19T15:08:45.224Z,21.90
2019-02-19T15:11:35.635Z,24.03
2019-02-19T15:14:11.618Z,22.43
2019-02-19T15:16:52.353Z,15.67
2019-02-19T15:19:39.153Z,30.90
2019-02-19T15:22:08.140Z,24.90
2019-02-19T15:24:43.247Z,14.60
2019-02-19T15:27:15.757Z,23.07
2019-02-19T15:29:55.288Z,33.87
2019-02-19T15:32:44.886Z,23.93
2019-02-19T15:35:21.247Z,22.80
2019-02-19T15:38:12.732Z,19.13
2019-02-19T15:40:48.906Z,21.67
2019-02-19T15:43:31.854Z,23.70
2019-02-19T15:46:13.606Z,25.33
2019-02-19T15:48:58.234Z,30.57
2019-02-19T15:51:34.077Z,31.47
2019-02-19T15:54:10.086Z,25.17
2019-02-19T15:56:58.065Z,24.60
2019-02-19T15:59:45.390Z,19.77
2019-02-19T16:02:17.923Z,22.60
2019-02-19T16:05:06.421Z,27.07
2019-02-19T16:07:44.110Z,24.33
2019-02-19T16:10:16.335Z,16.40
2019-02-19T16:13:04.383Z,28.23
2019-02-19T16:15:40.018Z,32.53
2019-02-19T16:18:21.800Z,20.77
2019-02-19T16:21:06.616Z,22.37
2019-02-19T16:23:42.202Z,23.03
2019-02-19T16:26:14.839Z,18.97
2019-02-19T16:28:50.756Z,17.93
2019-02-19T16:31:41.498Z,19.23
2019-02-19T16:34:17.909Z,18.43
2019-02-19T16:36:54.991Z,20.97
2019-02-19T16:40:03.275Z,23.93
2019-02-19T16:42:35.753Z,26.37
2019-02-19T16:45:13.109Z,24.90
2019-02-19T16:47:54.452Z,24.07
2019-02-19T16:50:33.270Z,18.87
2019-02-19T16:53:14.875Z,22.50
2019-02-19T16:55:50.871Z,18.17
2019-02-19T17:01:42.680Z,30.67
2019-02-19T17:04:23.920Z,28.93
2019-02-19T17:07:03.150Z,17.97
2019-02-19T17:09:40.139Z,20.27
2019-02-19T17:12:19.671Z,18.80
2019-02-19T17:14:59.330Z,8.53
2019-02-19T17:17:42.605Z,15.10
2019-02-19T17:20:28.216Z,8.87
2019-02-19T17:22:53.517Z,12.27
2019-02-19T17:25:34.559Z,10.03
2019-02-19T17:28:23.113Z,11.37
2019-02-19T17:30:59.181Z,11.30
2019-02-19T17:33:41.738Z,6.40
2019-02-19T17:36:34.679Z,9.23
2019-02-19T17:39:11.705Z,10.03
2019-02-19T17:41:53.646Z,5.67
2019-02-19T17:44:37.261Z,7.83
2019-02-19T17:47:15.687Z,6.50
2019-02-19T17:49:47.562Z,7.00
2019-02-19T17:52:26.100Z,6.80
2019-02-19T17:55:16.942Z,8.07
2019-02-19T17:58:39.874Z,11.27
2019-02-19T18:01:12.588Z,10.93
2019-02-19T18:03:54.355Z,16.10
2019-02-19T18:06:40.383Z,11.50
2019-02-19T18:09:31.201Z,12.13
2019-02-19T18:12:04.503Z,11.83
2019-02-19T18:14:47.557Z,15.80
2019-02-19T18:17:39.692Z,23.17
2019-02-19T18:20:10.661Z,22.90
2019-02-19T18:22:41.689Z,20.50
2019-02-19T18:25:13.046Z,24.33
2019-02-19T18:27:44.766Z,20.67
2019-02-19T18:30:16.191Z,20.53
2019-02-19T18:32:48.172Z,23.43
2019-02-19T18:35:19.931Z,28.50
2019-02-19T18:37:50.875Z,26.70
2019-02-19T18:40:23.412Z,29.20
2019-02-19T18:42:56.513Z,20.73
2019-02-19T18:45:27.502Z,36.57
2019-02-19T18:47:59.931Z,37.57
2019-02-19T18:50:32.639Z,29.33
2019-02-19T18:53:04.060Z,30.40
2019-02-19T18:55:37.583Z,37.67
2019-02-19T18:58:09.070Z,33.23
2019-02-19T19:00:41.591Z,24.33
2019-02-19T19:03:13.599Z,35.13
2019-02-19T19:05:44.411Z,23.67
2019-02-19T19:08:15.607Z,28.83
2019-02-19T19:10:46.667Z,23.53
2019-02-19T19:13:18.992Z,32.17
2019-02-19T19:15:52.889Z,19.10
2019-02-19T19:18:25.665Z,20.20
2019-02-19T19:21:07.479Z,32.00
2019-02-19T19:23:31.593Z,33.27
2019-02-19T19:26:03.684Z,29.93
2019-02-19T19:28:35.697Z,25.67
2019-02-19T19:31:10.964Z,23.37
2019-02-19T19:33:42.113Z,28.70
2019-02-19T19:36:13.759Z,28.70
2019-02-19T19:38:45.263Z,21.80
2019-02-19T19:41:16.371Z,26.50
2019-02-19T19:43:47.288Z,29.90
2019-02-19T19:46:18.455Z,22.53
2019-02-19T19:48:49.171Z,20.80
2019-02-19T19:51:20.432Z,24.30
2019-02-19T19:53:53.992Z,33.10
2019-02-19T19:56:26.729Z,30.10
2019-02-19T19:59:00.186Z,22.40
2019-02-19T20:01:31.841Z,19.70
2019-02-19T20:04:04.998Z,26.90
2019-02-19T20:06:36.705Z,34.10
2019-02-19T20:09:07.671Z,26.27
2019-02-19T20:11:38.563Z,25.17
2019-02-19T20:14:09.915Z,26.43
2019-02-19T20:16:42.526Z,28.80
2019-02-19T20:19:13.560Z,26.10
2019-02-19T20:21:45.229Z,24.43
2019-02-19T20:24:17.518Z,30.93
2019-02-19T20:26:48.746Z,28.17
2019-02-19T20:29:19.825Z,26.53
2019-02-19T20:31:51.505Z,22.77
2019-02-19T20:34:22.739Z,26.00
2019-02-19T20:36:54.953Z,21.20
2019-02-19T20:39:25.756Z,31.13
2019-02-19T20:41:57.234Z,27.20
2019-02-19T20:44:29.636Z,30.00
2019-02-19T20:47:01.639Z,29.37
2019-02-19T20:49:33.394Z,30.67
2019-02-19T20:52:07.192Z,33.73
2019-02-19T20:54:38.650Z,33.13
2019-02-19T20:57:10.965Z,29.57
2019-02-19T20:59:42.680Z,30.87
2019-02-19T21:02:14.825Z,28.83
2019-02-19T21:04:46.764Z,31.13
2019-02-19T21:07:18.128Z,29.13
2019-02-19T21:09:49.753Z,31.67
2019-02-19T21:12:21.436Z,21.70
2019-02-19T21:14:53.541Z,32.30
2019-02-19T21:17:26.097Z,31.57
2019-02-19T21:19:56.649Z,27.23
2019-02-19T21:22:27.373Z,29.33
2019-02-19T21:24:58.761Z,29.70
2019-02-19T21:27:29.957Z,26.77
2019-02-19T21:30:02.437Z,21.47
2019-02-19T21:32:33.079Z,27.33
2019-02-19T21:35:06.596Z,16.63
2019-02-19T21:37:37.800Z,27.53
2019-02-19T21:40:15.576Z,22.27
2019-02-19T21:42:46.725Z,26.23
2019-02-19T21:45:17.405Z,26.40
2019-02-19T21:47:48.567Z,24.37
2019-02-19T21:50:20.535Z,27.30
2019-02-19T21:52:52.272Z,29.33
2019-02-19T21:55:24.231Z,23.20
2019-02-19T21:57:56.196Z,33.57
2019-02-19T22:00:27.411Z,32.00
2019-02-19T22:02:58.023Z,24.03
2019-02-19T22:05:29.650Z,25.83
2019-02-19T22:08:02.451Z,27.23
2019-02-19T22:10:34.774Z,20.67
2019-02-19T22:13:07.325Z,25.83
2019-02-19T22:15:38.807Z,26.13
2019-02-19T22:18:12.664Z,22.30
2019-02-19T22:20:48.750Z,24.73
2019-02-19T22:23:22.479Z,25.07
2019-02-19T22:25:55.095Z,21.03
2019-02-19T22:28:25.601Z,21.77
2019-02-19T22:30:56.907Z,22.57
2019-02-19T22:33:28.184Z,15.13
2019-02-19T22:35:59.604Z,18.90
2019-02-19T22:38:30.734Z,15.57
2019-02-19T22:41:02.265Z,23.13
2019-02-19T22:43:33.585Z,17.57
2019-02-19T22:46:04.530Z,24.73
2019-02-19T22:48:36.669Z,22.00
2019-02-19T22:51:07.800Z,25.23
2019-02-19T22:53:50.695Z,21.93
2019-02-19T22:56:33.197Z,25.67
2019-02-19T22:59:05.705Z,24.70
2019-02-19T23:01:40.477Z,21.13
2019-02-19T23:04:12.655Z,20.50
2019-02-19T23:06:43.767Z,23.93
2019-02-19T23:09:15.061Z,20.67
2019-02-19T23:11:47.011Z,24.33
2019-02-19T23:14:19.441Z,23.80
2019-02-19T23:16:51.863Z,22.27
2019-02-19T23:19:23.654Z,22.93
2019-02-19T23:22:11.117Z,18.80
2019-02-19T23:24:42.160Z,20.93
2019-02-19T23:27:12.683Z,24.53
2019-02-19T23:29:46.102Z,18.83
2019-02-19T23:32:18.281Z,26.47
2019-02-19T23:34:51.010Z,26.83
2019-02-19T23:37:23.245Z,23.73
2019-02-19T23:39:54.703Z,24.50
2019-02-19T23:42:26.877Z,19.33
2019-02-19T23:45:05.215Z,20.33
2019-02-19T23:47:36.632Z,18.30
2019-02-19T23:50:09.611Z,20.07
2019-02-19T23:52:40.752Z,20.07
2019-02-19T23:55:11.126Z,27.87
2019-02-19T23:57:42.590Z,28.30
